createdAt,value
2018-12-11T00:00:14.875Z,100999.00
2018-12-11T00:02:43.133Z,100990.00
2018-12-11T00:05:11.525Z,100999.00
2018-12-11T00:07:39.769Z,100997.00
2018-12-11T00:10:08.103Z,100997.00
2018-12-11T00:12:36.176Z,101008.00
2018-12-11T00:15:05.247Z,100986.00
2018-12-11T00:17:33.520Z,100997.00
2018-12-11T00:20:01.667Z,101001.00
2018-12-11T00:22:29.794Z,100988.00
2018-12-11T00:24:58.067Z,100986.00
2018-12-11T00:27:26.238Z,100977.00
2018-12-11T00:29:54.462Z,100981.00
2018-12-11T00:32:22.549Z,100989.00
2018-12-11T00:34:50.666Z,100985.00
2018-12-11T00:37:18.853Z,100982.00
2018-12-11T00:39:46.955Z,100987.00
2018-12-11T00:42:15.048Z,100987.00
2018-12-11T00:44:43.338Z,100980.00
2018-12-11T00:47:11.524Z,100987.00
2018-12-11T00:49:39.645Z,100992.00
2018-12-11T00:52:07.802Z,100985.00
2018-12-11T00:54:35.814Z,100985.00
2018-12-11T00:57:04.266Z,100979.00
2018-12-11T00:59:32.503Z,100977.00
2018-12-11T01:02:00.709Z,100990.00
2018-12-11T01:04:28.851Z,100985.00
2018-12-11T01:06:57.056Z,100984.00
2018-12-11T01:09:25.310Z,100983.00
2018-12-11T01:11:53.441Z,100985.00
2018-12-11T01:14:21.678Z,100988.00
2018-12-11T01:16:49.762Z,100991.00
2018-12-11T01:19:17.996Z,100993.00
2018-12-11T01:21:46.071Z,101002.00
2018-12-11T01:24:14.128Z,101000.00
2018-12-11T01:26:42.282Z,100999.00
2018-12-11T01:29:10.423Z,101006.00
2018-12-11T01:31:38.411Z,101004.00
2018-12-11T01:34:06.437Z,100998.00
2018-12-11T01:36:34.462Z,100997.00
2018-12-11T01:39:05.972Z,101002.00
2018-12-11T01:41:33.996Z,101018.00
2018-12-11T01:47:02.773Z,101022.00
2018-12-11T01:49:30.819Z,101015.00
2018-12-11T01:51:58.929Z,101024.00
2018-12-11T01:54:27.400Z,101018.00
2018-12-11T01:56:55.567Z,101030.00
2018-12-11T01:59:23.641Z,101024.00
2018-12-11T02:01:51.658Z,101023.00
2018-12-11T02:04:19.813Z,101019.00
2018-12-11T02:06:47.851Z,101020.00
2018-12-11T02:09:15.903Z,101016.00
2018-12-11T02:11:43.927Z,101018.00
2018-12-11T02:14:12.000Z,101024.00
2018-12-11T02:16:40.099Z,101012.00
2018-12-11T02:19:08.166Z,101024.00
2018-12-11T02:21:41.909Z,101023.00
2018-12-11T02:24:06.290Z,101007.00
2018-12-11T02:26:34.310Z,101010.00
2018-12-11T02:29:02.421Z,101009.00
2018-12-11T02:31:30.559Z,101015.00
2018-12-11T02:33:58.669Z,101003.00
2018-12-11T02:36:26.828Z,101006.00
2018-12-11T02:38:54.878Z,101010.00
2018-12-11T02:41:22.868Z,101009.00
2018-12-11T02:43:50.989Z,101007.00
2018-12-11T02:46:19.014Z,100936.00
2018-12-11T02:48:47.055Z,101023.00
2018-12-11T02:51:23.672Z,101024.00
2018-12-11T02:53:51.703Z,101023.00
2018-12-11T02:56:19.935Z,101024.00
2018-12-11T02:58:48.026Z,101023.00
2018-12-11T03:01:16.119Z,101022.00
2018-12-11T03:03:44.203Z,101027.00
2018-12-11T03:06:12.243Z,101033.00
2018-12-11T03:08:40.280Z,101026.00
2018-12-11T03:11:08.308Z,101031.00
2018-12-11T03:13:36.438Z,101027.00
2018-12-11T03:16:04.527Z,101022.00
2018-12-11T03:18:32.559Z,101020.00
2018-12-11T03:21:00.546Z,101022.00
2018-12-11T03:23:28.862Z,101025.00
2018-12-11T03:25:56.882Z,101021.00
2018-12-11T03:28:25.029Z,101029.00
2018-12-11T03:30:53.101Z,101028.00
2018-12-11T03:33:21.200Z,101018.00
2018-12-11T03:35:49.349Z,101030.00
2018-12-11T03:38:17.352Z,101028.00
2018-12-11T03:40:45.452Z,101032.00
2018-12-11T03:43:13.445Z,101023.00
2018-12-11T03:45:41.526Z,101022.00
2018-12-11T03:48:09.591Z,101021.00
2018-12-11T03:50:37.793Z,101023.00
2018-12-11T03:53:05.855Z,101030.00
2018-12-11T03:55:33.921Z,101019.00
2018-12-11T03:58:02.152Z,101026.00
2018-12-11T04:00:30.379Z,101023.00
2018-12-11T04:02:58.425Z,101019.00
2018-12-11T04:05:26.569Z,101024.00
2018-12-11T04:07:54.684Z,101020.00
2018-12-11T04:10:22.707Z,101010.00
2018-12-11T04:12:50.717Z,101007.00
2018-12-11T04:15:18.894Z,101013.00
2018-12-11T04:17:47.426Z,101013.00
2018-12-11T04:20:15.475Z,101019.00
2018-12-11T04:22:43.519Z,101009.00
2018-12-11T04:25:11.711Z,101011.00
2018-12-11T04:27:39.752Z,101001.00
2018-12-11T04:30:08.919Z,100999.00
2018-12-11T04:32:36.918Z,101004.00
2018-12-11T04:35:05.365Z,101005.00
2018-12-11T04:37:33.439Z,101015.00
2018-12-11T04:40:01.548Z,101010.00
2018-12-11T04:42:29.633Z,101003.00
2018-12-11T04:44:57.685Z,101003.00
2018-12-11T04:47:25.816Z,100998.00
2018-12-11T04:49:53.894Z,101009.00
2018-12-11T04:52:21.919Z,101012.00
2018-12-11T04:54:50.158Z,101014.00
2018-12-11T04:57:18.253Z,101019.00
2018-12-11T04:59:46.300Z,101017.00
2018-12-11T05:02:14.346Z,101006.00
2018-12-11T05:04:42.387Z,101015.00
2018-12-11T05:07:10.482Z,101007.00
2018-12-11T05:09:38.519Z,101012.00
2018-12-11T05:12:06.586Z,101020.00
2018-12-11T05:14:34.628Z,101018.00
2018-12-11T05:17:02.670Z,101016.00
2018-12-11T05:19:30.740Z,101013.00
2018-12-11T05:21:58.805Z,101008.00
2018-12-11T05:24:27.010Z,101003.00
2018-12-11T05:26:55.106Z,101006.00
2018-12-11T05:29:23.154Z,101006.00
2018-12-11T05:31:51.269Z,101014.00
2018-12-11T05:34:19.386Z,101013.00
2018-12-11T05:36:47.482Z,101019.00
2018-12-11T05:39:15.478Z,101023.00
2018-12-11T05:41:43.597Z,101009.00
2018-12-11T05:44:11.631Z,101020.00
2018-12-11T05:46:39.676Z,101021.00
2018-12-11T05:49:07.709Z,101024.00
2018-12-11T05:51:35.917Z,101027.00
2018-12-11T05:54:04.015Z,101023.00
2018-12-11T05:56:32.199Z,101030.00
2018-12-11T05:59:00.240Z,101023.00
2018-12-11T06:01:28.370Z,101014.00
2018-12-11T06:03:56.442Z,101033.00
2018-12-11T06:06:24.599Z,101025.00
2018-12-11T06:08:52.698Z,101025.00
2018-12-11T06:11:20.799Z,101019.00
2018-12-11T06:13:48.875Z,101015.00
2018-12-11T06:16:17.483Z,101012.00
2018-12-11T06:18:45.572Z,101008.00
2018-12-11T06:21:13.709Z,101010.00
2018-12-11T06:23:41.800Z,101008.00
2018-12-11T06:26:09.891Z,101004.00
2018-12-11T06:28:37.891Z,101014.00
2018-12-11T06:31:06.120Z,101011.00
2018-12-11T06:33:34.176Z,101015.00
2018-12-11T06:36:02.310Z,101017.00
2018-12-11T06:38:30.381Z,101017.00
2018-12-11T06:40:58.429Z,101026.00
2018-12-11T06:43:26.530Z,101018.00
2018-12-11T06:45:54.892Z,101023.00
2018-12-11T06:48:23.133Z,101022.00
2018-12-11T06:50:51.239Z,101025.00
2018-12-11T06:53:19.264Z,101010.00
2018-12-11T06:55:47.281Z,101026.00
2018-12-11T06:58:15.395Z,101023.00
2018-12-11T07:00:43.442Z,101027.00
2018-12-11T07:03:11.705Z,101016.00
2018-12-11T07:05:39.722Z,101022.00
2018-12-11T07:08:09.898Z,101018.00
2018-12-11T07:10:37.909Z,101025.00
2018-12-11T07:13:05.962Z,101015.00
2018-12-11T07:15:34.127Z,101031.00
2018-12-11T07:18:02.223Z,101028.00
2018-12-11T07:20:30.262Z,101030.00
2018-12-11T07:22:58.338Z,101038.00
2018-12-11T07:25:26.399Z,101037.00
2018-12-11T07:27:54.446Z,101033.00
2018-12-11T07:30:22.501Z,101030.00
2018-12-11T07:32:50.573Z,101037.00
2018-12-11T07:35:21.762Z,101041.00
2018-12-11T07:38:06.053Z,101055.00
2018-12-11T07:40:34.198Z,101052.00
2018-12-11T07:43:02.225Z,101045.00
2018-12-11T07:45:30.290Z,101044.00
2018-12-11T07:47:58.272Z,101050.00
2018-12-11T07:50:26.320Z,101065.00
2018-12-11T07:52:54.345Z,101036.00
2018-12-11T07:55:22.351Z,101045.00
2018-12-11T07:57:50.430Z,101040.00
2018-12-11T08:00:18.500Z,101055.00
2018-12-11T08:02:46.612Z,101051.00
2018-12-11T08:05:14.755Z,101050.00
2018-12-11T08:07:42.860Z,101055.00
2018-12-11T08:10:10.940Z,101054.00
2018-12-11T08:12:40.024Z,101062.00
2018-12-11T08:15:08.350Z,101062.00
2018-12-11T08:17:36.408Z,101060.00
2018-12-11T08:20:04.842Z,101066.00
2018-12-11T08:22:33.322Z,101068.00
2018-12-11T08:25:01.479Z,101054.00
2018-12-11T08:27:29.631Z,101063.00
2018-12-11T08:29:57.646Z,101080.00
2018-12-11T08:32:25.790Z,101074.00
2018-12-11T08:34:53.961Z,101084.00
2018-12-11T08:37:22.070Z,101072.00
2018-12-11T08:39:50.166Z,101069.00
2018-12-11T08:42:18.241Z,101079.00
2018-12-11T08:44:51.113Z,101084.00
2018-12-11T08:47:16.579Z,101080.00
2018-12-11T08:49:44.738Z,101081.00
2018-12-11T08:52:12.883Z,101087.00
2018-12-11T08:54:41.027Z,101078.00
2018-12-11T08:57:09.160Z,101083.00
2018-12-11T08:59:37.336Z,101060.00
2018-12-11T09:02:05.764Z,101076.00
2018-12-11T09:04:33.997Z,101068.00
2018-12-11T09:07:02.137Z,101049.00
2018-12-11T09:09:30.242Z,101068.00
2018-12-11T09:11:58.404Z,101072.00
2018-12-11T09:14:26.527Z,101068.00
2018-12-11T09:16:54.577Z,101058.00
2018-12-11T09:19:22.661Z,101073.00
2018-12-11T09:21:50.801Z,101077.00
2018-12-11T09:24:18.826Z,101068.00
2018-12-11T09:26:46.872Z,101091.00
2018-12-11T09:29:14.935Z,101089.00
2018-12-11T09:31:43.035Z,101090.00
2018-12-11T09:34:11.091Z,101075.00
2018-12-11T09:36:39.211Z,101076.00
2018-12-11T09:39:07.973Z,101072.00
2018-12-11T09:41:36.515Z,101071.00
2018-12-11T09:44:04.616Z,101076.00
2018-12-11T09:46:32.619Z,101073.00
2018-12-11T09:49:00.658Z,101079.00
2018-12-11T09:51:28.684Z,101081.00
2018-12-11T09:53:56.910Z,101072.00
2018-12-11T09:56:25.059Z,101072.00
2018-12-11T09:58:53.103Z,101073.00
2018-12-11T10:01:21.195Z,101067.00
2018-12-11T10:03:49.274Z,101070.00
2018-12-11T10:06:17.463Z,101063.00
2018-12-11T10:08:45.533Z,101062.00
2018-12-11T10:11:13.650Z,101071.00
2018-12-11T10:13:41.734Z,101076.00
2018-12-11T10:16:09.795Z,101075.00
2018-12-11T10:18:37.954Z,101081.00
2018-12-11T10:21:06.200Z,101082.00
2018-12-11T10:26:22.277Z,101080.00
2018-12-11T10:28:50.397Z,101083.00
2018-12-11T10:31:18.492Z,101083.00
2018-12-11T10:33:46.597Z,101088.00
2018-12-11T10:36:14.754Z,101078.00
2018-12-11T10:38:42.840Z,101070.00
2018-12-11T10:41:10.887Z,101071.00
2018-12-11T10:43:38.988Z,101070.00
2018-12-11T10:46:07.114Z,101070.00
2018-12-11T10:48:35.250Z,101074.00
2018-12-11T10:51:03.817Z,101078.00
2018-12-11T10:53:31.987Z,101071.00
2018-12-11T10:56:00.110Z,101071.00
2018-12-11T10:58:28.188Z,101051.00
2018-12-11T11:01:01.786Z,101062.00
2018-12-11T11:03:29.876Z,101056.00
2018-12-11T11:05:57.957Z,101061.00
2018-12-11T11:08:26.199Z,101045.00
2018-12-11T11:10:54.305Z,101046.00
2018-12-11T11:13:22.419Z,101042.00
2018-12-11T11:15:50.560Z,101047.00
2018-12-11T11:18:18.710Z,101042.00
2018-12-11T11:20:46.802Z,101045.00
2018-12-11T11:23:14.867Z,101051.00
2018-12-11T11:25:42.955Z,101041.00
2018-12-11T11:28:11.092Z,101047.00
2018-12-11T11:30:39.137Z,101041.00
2018-12-11T11:33:07.239Z,101045.00
2018-12-11T11:35:35.283Z,101050.00
2018-12-11T11:38:03.713Z,101056.00
2018-12-11T11:40:31.794Z,101042.00
2018-12-11T11:43:01.154Z,101037.00
2018-12-11T11:45:29.249Z,101046.00
2018-12-11T11:47:57.345Z,101033.00
2018-12-11T11:50:25.852Z,101043.00
2018-12-11T11:52:54.022Z,101038.00
2018-12-11T11:55:22.093Z,101029.00
2018-12-11T11:57:50.190Z,101035.00
2018-12-11T12:00:20.531Z,101029.00
2018-12-11T12:02:48.695Z,101026.00
2018-12-11T12:05:16.819Z,101025.00
2018-12-11T12:07:44.938Z,101025.00
2018-12-11T12:10:13.238Z,101018.00
2018-12-11T12:12:41.389Z,101012.00
2018-12-11T12:15:09.978Z,101025.00
2018-12-11T12:17:38.061Z,101023.00
2018-12-11T12:20:09.395Z,101033.00
2018-12-11T12:22:37.436Z,101039.00
2018-12-11T12:25:06.284Z,101030.00
2018-12-11T12:27:35.265Z,101040.00
2018-12-11T12:30:04.127Z,101038.00
2018-12-11T12:32:32.183Z,101045.00
2018-12-11T12:35:00.271Z,101040.00
2018-12-11T12:37:28.369Z,101033.00
2018-12-11T12:39:56.457Z,101035.00
2018-12-11T12:42:24.462Z,101042.00
2018-12-11T12:44:52.587Z,101034.00
2018-12-11T12:47:20.721Z,101034.00
2018-12-11T12:49:50.666Z,101032.00
2018-12-11T12:52:18.882Z,101028.00
2018-12-11T12:54:46.940Z,101023.00
2018-12-11T12:57:15.196Z,101033.00
2018-12-11T12:59:43.362Z,101036.00
2018-12-11T13:02:11.400Z,101036.00
2018-12-11T13:04:40.122Z,101038.00
2018-12-11T13:07:08.302Z,101035.00
2018-12-11T13:09:36.461Z,101039.00
2018-12-11T13:12:04.770Z,101036.00
2018-12-11T13:14:32.847Z,101035.00
2018-12-11T13:17:00.986Z,101029.00
2018-12-11T13:19:29.090Z,101038.00
2018-12-11T13:21:57.284Z,101045.00
2018-12-11T13:24:25.429Z,101045.00
2018-12-11T13:26:53.616Z,101036.00
2018-12-11T13:29:22.156Z,101034.00
2018-12-11T13:31:50.809Z,101034.00
2018-12-11T13:34:19.067Z,101041.00
2018-12-11T13:36:47.163Z,101037.00
2018-12-11T13:39:15.438Z,101036.00
2018-12-11T13:41:43.804Z,101030.00
2018-12-11T13:44:12.145Z,101035.00
2018-12-11T13:46:40.898Z,101024.00
2018-12-11T13:49:09.084Z,101031.00
2018-12-11T13:51:37.249Z,101034.00
2018-12-11T13:54:05.378Z,101031.00
2018-12-11T13:56:33.379Z,101042.00
2018-12-11T13:59:01.412Z,101041.00
2018-12-11T14:01:29.497Z,101032.00
2018-12-11T14:03:57.770Z,101032.00
2018-12-11T14:06:25.835Z,101031.00
2018-12-11T14:08:53.872Z,101031.00
2018-12-11T14:11:21.959Z,101031.00
2018-12-11T14:13:50.071Z,101033.00
2018-12-11T14:16:18.210Z,101035.00
2018-12-11T14:18:46.298Z,101033.00
2018-12-11T14:21:14.397Z,101034.00
2018-12-11T14:23:42.848Z,101030.00
2018-12-11T14:26:11.151Z,101035.00
2018-12-11T14:28:39.217Z,101031.00
2018-12-11T14:31:07.288Z,101039.00
2018-12-11T14:33:35.323Z,101038.00
2018-12-11T14:36:03.550Z,101036.00
2018-12-11T14:38:31.868Z,101028.00
2018-12-11T14:41:00.141Z,101029.00
2018-12-11T14:43:28.381Z,101029.00
2018-12-11T14:45:56.741Z,101033.00
2018-12-11T14:48:24.868Z,101030.00
2018-12-11T14:50:53.216Z,101028.00
2018-12-11T14:53:22.343Z,101028.00
2018-12-11T14:55:50.442Z,101031.00
2018-12-11T14:58:18.569Z,101032.00
2018-12-11T15:00:46.665Z,101031.00
2018-12-11T15:03:14.900Z,101038.00
2018-12-11T15:05:43.009Z,101028.00
2018-12-11T15:08:11.190Z,101036.00
2018-12-11T15:10:39.427Z,101032.00
2018-12-11T15:13:07.771Z,101041.00
2018-12-11T15:15:35.863Z,101038.00
2018-12-11T15:18:03.971Z,101032.00
2018-12-11T15:20:32.055Z,101036.00
2018-12-11T15:23:00.109Z,101047.00
2018-12-11T15:25:28.247Z,101034.00
2018-12-11T15:27:56.289Z,101044.00
2018-12-11T15:30:24.371Z,101037.00
2018-12-11T15:32:52.431Z,101038.00
2018-12-11T15:35:20.575Z,101042.00
2018-12-11T15:37:48.673Z,101040.00
2018-12-11T15:40:16.732Z,101040.00
2018-12-11T15:42:44.840Z,101049.00
2018-12-11T15:45:13.061Z,101049.00
2018-12-11T15:47:41.201Z,101042.00
2018-12-11T15:50:09.497Z,101054.00
2018-12-11T15:52:37.601Z,101048.00
2018-12-11T15:55:06.499Z,101053.00
2018-12-11T15:57:35.007Z,101055.00
2018-12-11T16:00:04.980Z,101053.00
2018-12-11T16:02:33.054Z,101049.00
2018-12-11T16:05:01.420Z,101051.00
2018-12-11T16:07:29.615Z,101054.00
2018-12-11T16:09:57.761Z,101059.00
2018-12-11T16:12:25.948Z,101053.00
2018-12-11T16:14:54.007Z,101048.00
2018-12-11T16:17:22.175Z,101056.00
2018-12-11T16:19:50.310Z,101069.00
2018-12-11T16:22:18.459Z,101057.00
2018-12-11T16:24:47.355Z,101070.00
2018-12-11T16:27:16.103Z,101055.00
2018-12-11T16:29:44.317Z,101064.00
2018-12-11T16:32:12.422Z,101050.00
2018-12-11T16:34:40.511Z,101061.00
2018-12-11T16:37:09.700Z,101064.00
2018-12-11T16:39:37.844Z,101055.00
2018-12-11T16:42:06.154Z,101053.00
2018-12-11T16:44:34.309Z,101059.00
2018-12-11T16:47:02.847Z,101058.00
2018-12-11T16:49:30.995Z,101052.00
2018-12-11T16:51:59.098Z,101060.00
2018-12-11T16:54:27.162Z,101060.00
2018-12-11T16:56:55.437Z,101057.00
2018-12-11T16:59:23.659Z,101055.00
2018-12-11T17:01:51.879Z,101059.00
2018-12-11T17:04:19.937Z,101064.00
2018-12-11T17:06:48.122Z,101056.00
2018-12-11T17:09:16.446Z,101059.00
2018-12-11T17:11:44.562Z,101060.00
2018-12-11T17:14:12.627Z,101059.00
2018-12-11T17:16:40.765Z,101068.00
2018-12-11T17:19:09.000Z,101068.00
2018-12-11T17:21:37.252Z,101060.00
2018-12-11T17:24:05.414Z,101069.00
2018-12-11T17:26:33.660Z,101082.00
2018-12-11T17:29:01.796Z,101079.00
2018-12-11T17:31:30.058Z,101083.00
2018-12-11T17:33:58.305Z,101089.00
2018-12-11T17:36:26.871Z,101092.00
2018-12-11T17:38:55.248Z,101096.00
2018-12-11T17:41:23.667Z,101106.00
2018-12-11T17:43:51.816Z,101105.00
2018-12-11T17:46:19.974Z,101103.00
2018-12-11T17:48:48.130Z,101106.00
2018-12-11T17:51:16.621Z,101118.00
2018-12-11T17:53:45.156Z,101104.00
2018-12-11T17:56:13.288Z,101109.00
2018-12-11T17:58:41.577Z,101113.00
2018-12-11T18:01:09.805Z,101102.00
2018-12-11T18:03:37.999Z,101104.00
2018-12-11T18:06:06.174Z,101104.00
2018-12-11T18:08:34.351Z,101103.00
2018-12-11T18:11:02.557Z,101104.00
2018-12-11T18:13:30.841Z,101092.00
2018-12-11T18:15:59.072Z,101088.00
2018-12-11T18:18:27.302Z,101096.00
2018-12-11T18:20:55.540Z,101103.00
2018-12-11T18:23:23.798Z,101099.00
2018-12-11T18:25:52.036Z,101100.00
2018-12-11T18:28:20.344Z,101088.00
2018-12-11T18:30:48.612Z,101101.00
2018-12-11T18:33:16.829Z,101101.00
2018-12-11T18:35:45.110Z,101103.00
2018-12-11T18:38:13.351Z,101100.00
2018-12-11T18:40:41.803Z,101096.00
2018-12-11T18:43:10.131Z,101109.00
2018-12-11T18:45:38.481Z,101114.00
2018-12-11T18:48:06.686Z,101116.00
2018-12-11T18:50:34.973Z,101108.00
2018-12-11T18:53:03.217Z,101116.00
2018-12-11T18:55:31.381Z,101116.00
2018-12-11T18:57:59.595Z,101116.00
2018-12-11T19:00:27.961Z,101117.00
2018-12-11T19:02:56.322Z,101123.00
2018-12-11T19:05:24.519Z,101122.00
2018-12-11T19:07:52.779Z,101119.00
2018-12-11T19:10:21.135Z,101120.00
2018-12-11T19:12:49.445Z,101120.00
2018-12-11T19:15:17.859Z,101126.00
2018-12-11T19:17:46.114Z,101127.00
2018-12-11T19:20:14.609Z,101127.00
2018-12-11T19:22:42.936Z,101115.00
2018-12-11T19:25:17.169Z,101127.00
2018-12-11T19:27:45.555Z,101125.00
2018-12-11T19:30:13.924Z,101119.00
2018-12-11T19:32:42.229Z,101117.00
2018-12-11T19:35:10.650Z,101109.00
2018-12-11T19:37:38.865Z,101111.00
2018-12-11T19:40:09.151Z,101104.00
2018-12-11T19:42:38.750Z,101120.00
2018-12-11T19:45:07.696Z,101102.00
2018-12-11T19:47:35.965Z,101093.00
2018-12-11T19:50:05.378Z,101096.00
2018-12-11T19:52:39.492Z,101091.00
2018-12-11T19:55:04.592Z,101088.00
2018-12-11T19:57:32.933Z,101094.00
2018-12-11T20:00:01.198Z,101090.00
2018-12-11T20:02:29.567Z,101094.00
2018-12-11T20:04:57.893Z,101090.00
2018-12-11T20:07:26.127Z,101091.00
2018-12-11T20:10:00.154Z,101086.00
2018-12-11T20:12:28.428Z,101092.00
2018-12-11T20:14:57.089Z,101091.00
2018-12-11T20:17:25.343Z,101086.00
2018-12-11T20:19:53.654Z,101091.00
2018-12-11T20:22:21.969Z,101080.00
2018-12-11T20:24:50.361Z,101066.00
2018-12-11T20:27:18.554Z,101083.00
2018-12-11T20:29:46.819Z,101082.00
2018-12-11T20:32:15.075Z,101078.00
2018-12-11T20:34:43.344Z,101085.00
2018-12-11T20:37:12.240Z,101086.00
2018-12-11T20:39:40.556Z,101084.00
2018-12-11T20:42:08.910Z,101080.00
2018-12-11T20:44:37.306Z,101081.00
2018-12-11T20:47:05.638Z,101086.00
2018-12-11T20:49:33.897Z,101084.00
2018-12-11T20:52:02.276Z,101091.00
2018-12-11T20:54:30.758Z,101095.00
2018-12-11T20:56:59.016Z,101095.00
2018-12-11T20:59:27.434Z,101102.00
2018-12-11T21:01:55.659Z,101100.00
2018-12-11T21:04:24.120Z,101100.00
2018-12-11T21:06:52.341Z,101104.00
2018-12-11T21:09:20.583Z,101100.00
2018-12-11T21:11:48.754Z,101105.00
2018-12-11T21:14:16.981Z,101112.00
2018-12-11T21:16:45.109Z,101106.00
2018-12-11T21:19:13.331Z,101107.00
2018-12-11T21:21:41.659Z,101104.00
2018-12-11T21:24:10.308Z,101111.00
2018-12-11T21:26:38.500Z,101106.00
2018-12-11T21:29:06.958Z,101114.00
2018-12-11T21:31:35.268Z,101110.00
2018-12-11T21:34:03.455Z,101108.00
2018-12-11T21:36:31.671Z,101108.00
2018-12-11T21:38:59.895Z,101106.00
2018-12-11T21:41:28.068Z,101105.00
2018-12-11T21:43:56.184Z,101112.00
2018-12-11T21:46:24.627Z,101114.00
2018-12-11T21:48:52.884Z,101121.00
2018-12-11T21:51:21.097Z,101128.00
2018-12-11T21:53:49.309Z,101105.00
2018-12-11T21:56:17.871Z,101117.00
2018-12-11T21:58:46.170Z,101112.00
2018-12-11T22:01:14.282Z,101105.00
2018-12-11T22:03:42.993Z,101117.00
2018-12-11T22:06:11.659Z,101115.00
2018-12-11T22:08:39.856Z,101118.00
2018-12-11T22:11:08.055Z,101117.00
2018-12-11T22:13:36.251Z,101118.00
2018-12-11T22:16:04.505Z,101120.00
2018-12-11T22:18:32.629Z,101116.00
2018-12-11T22:21:00.830Z,101112.00
2018-12-11T22:23:29.251Z,101116.00
2018-12-11T22:25:57.501Z,101113.00
2018-12-11T22:28:25.687Z,101121.00
2018-12-11T22:30:53.771Z,101121.00
2018-12-11T22:33:21.906Z,101129.00
2018-12-11T22:35:50.087Z,101123.00
2018-12-11T22:38:18.292Z,101124.00
2018-12-11T22:40:46.415Z,101127.00
2018-12-11T22:43:14.558Z,101117.00
2018-12-11T22:45:42.662Z,101126.00
2018-12-11T22:48:10.778Z,101127.00
2018-12-11T22:50:38.988Z,101119.00
2018-12-11T22:53:07.048Z,101112.00
2018-12-11T22:55:35.217Z,101120.00
2018-12-11T22:58:03.344Z,101115.00
2018-12-11T23:00:31.618Z,101114.00
2018-12-11T23:02:59.698Z,101128.00
2018-12-11T23:05:28.387Z,101122.00
2018-12-11T23:07:56.478Z,101122.00
2018-12-11T23:10:24.622Z,101128.00
2018-12-11T23:12:52.684Z,101131.00
2018-12-11T23:15:20.911Z,101131.00
2018-12-11T23:17:49.119Z,101138.00
2018-12-11T23:20:17.345Z,101148.00
2018-12-11T23:22:45.441Z,101137.00
2018-12-11T23:25:13.904Z,101141.00
2018-12-11T23:27:41.935Z,101133.00
2018-12-11T23:30:10.319Z,101137.00
2018-12-11T23:32:38.450Z,101130.00
2018-12-11T23:35:07.322Z,101131.00
2018-12-11T23:37:35.386Z,101125.00
2018-12-11T23:40:04.371Z,101124.00
2018-12-11T23:42:32.409Z,101118.00
2018-12-11T23:45:00.459Z,101120.00
2018-12-11T23:47:28.550Z,101121.00
2018-12-11T23:49:56.649Z,101130.00
2018-12-11T23:52:24.725Z,101123.00
2018-12-11T23:54:53.090Z,101129.00
2018-12-11T23:57:21.248Z,101126.00
2018-12-11T23:59:49.328Z,101124.00
